createdAt,value
2022-12-14T00:00:28.938Z,-4.43
2022-12-14T00:02:57.177Z,-4.49
2022-12-14T00:05:25.799Z,-4.59
2022-12-14T00:07:54.070Z,-4.33
2022-12-14T00:10:22.756Z,-4.45
2022-12-14T00:12:51.206Z,-4.40
2022-12-14T00:15:20.243Z,-4.32
2022-12-14T00:17:50.018Z,-4.33
2022-12-14T00:20:18.656Z,-4.38
2022-12-14T00:22:47.449Z,-4.25
2022-12-14T00:25:16.093Z,-4.23
2022-12-14T00:27:45.636Z,-4.11
2022-12-14T00:30:14.596Z,-4.07
2022-12-14T00:32:42.762Z,-4.13
2022-12-14T00:35:19.163Z,-4.24
2022-12-14T00:37:48.829Z,-4.22
2022-12-14T00:40:17.412Z,-4.04
2022-12-14T00:42:45.491Z,-3.91
2022-12-14T00:45:13.606Z,-3.92
2022-12-14T00:47:44.882Z,-3.72
2022-12-14T00:50:14.443Z,-3.51
2022-12-14T00:52:42.399Z,-3.58
2022-12-14T00:55:11.591Z,-3.70
2022-12-14T00:57:39.764Z,-3.33
2022-12-14T01:00:09.577Z,-3.41
2022-12-14T01:02:37.793Z,-3.36
2022-12-14T01:05:06.626Z,-3.45
2022-12-14T01:07:35.943Z,-3.48
2022-12-14T01:10:04.440Z,-3.56
2022-12-14T01:12:32.593Z,-3.33
2022-12-14T01:15:00.962Z,-3.40
2022-12-14T01:17:29.049Z,-3.36
2022-12-14T01:19:57.331Z,-3.37
2022-12-14T01:22:25.729Z,-3.18
2022-12-14T01:24:55.196Z,-3.36
2022-12-14T01:27:26.518Z,-3.38
2022-12-14T01:29:57.451Z,-3.34
2022-12-14T01:32:25.555Z,-3.26
2022-12-14T01:34:53.963Z,-3.34
2022-12-14T01:37:21.957Z,-3.35
2022-12-14T01:39:50.283Z,-3.37
2022-12-14T01:42:19.839Z,-3.26
2022-12-14T01:44:55.838Z,-3.26
2022-12-14T01:47:30.267Z,-3.12
2022-12-14T01:50:03.441Z,-3.26
2022-12-14T01:52:37.959Z,-3.38
2022-12-14T01:55:11.419Z,-3.23
2022-12-14T01:57:45.467Z,-3.30
2022-12-14T02:00:15.370Z,-3.19
2022-12-14T02:02:50.421Z,-3.28
2022-12-14T02:05:21.774Z,-3.23
2022-12-14T02:07:52.208Z,-3.20
2022-12-14T02:10:22.436Z,-3.10
2022-12-14T02:12:58.471Z,-3.09
2022-12-14T02:15:26.779Z,-3.12
2022-12-14T02:17:55.010Z,-3.07
2022-12-14T02:20:24.958Z,-3.03
2022-12-14T02:23:42.558Z,-2.87
2022-12-14T02:26:38.302Z,-3.07
2022-12-14T02:29:30.418Z,-2.90
2022-12-14T02:32:10.186Z,-3.02
2022-12-14T02:34:49.631Z,-2.94
2022-12-14T02:37:23.947Z,-3.02
2022-12-14T02:40:03.262Z,-2.87
2022-12-14T02:42:43.243Z,-2.83
2022-12-14T02:45:21.694Z,-2.86
2022-12-14T02:47:55.449Z,-2.56
2022-12-14T02:50:31.984Z,-2.71
2022-12-14T02:53:09.036Z,-2.74
2022-12-14T02:55:40.843Z,-2.85
2022-12-14T02:58:15.458Z,-2.70
2022-12-14T03:00:46.505Z,-2.74
2022-12-14T03:03:14.565Z,-2.77
2022-12-14T03:05:43.169Z,-2.79
2022-12-14T03:08:15.242Z,-2.80
2022-12-14T03:10:49.973Z,-2.69
2022-12-14T03:13:23.279Z,-3.09
2022-12-14T03:15:58.966Z,-2.81
2022-12-14T03:18:31.889Z,-2.72
2022-12-14T03:21:02.327Z,-2.87
2022-12-14T03:23:35.724Z,-3.04
2022-12-14T03:26:13.649Z,-2.91
2022-12-14T03:28:46.730Z,-3.06
2022-12-14T03:31:22.265Z,-2.95
2022-12-14T03:33:53.396Z,-2.90
2022-12-14T03:36:28.465Z,-2.81
2022-12-14T03:39:02.144Z,-2.82
2022-12-14T03:41:39.425Z,-2.94
2022-12-14T03:44:23.960Z,-2.92
2022-12-14T03:46:59.788Z,-2.79
2022-12-14T03:49:39.698Z,-2.88
2022-12-14T03:52:13.816Z,-2.93
2022-12-14T03:54:52.299Z,-3.00
2022-12-14T03:57:34.393Z,-2.92
2022-12-14T04:00:06.993Z,-2.64
2022-12-14T04:02:42.996Z,-2.64
2022-12-14T04:05:16.132Z,-2.65
2022-12-14T04:07:53.752Z,-2.79
2022-12-14T04:10:43.914Z,-2.77
2022-12-14T04:13:48.982Z,-2.69
2022-12-14T04:16:40.459Z,-2.80
2022-12-14T04:19:25.255Z,-2.70
2022-12-14T04:21:58.565Z,-2.76
2022-12-14T04:24:50.752Z,-2.79
2022-12-14T04:27:23.941Z,-2.66
2022-12-14T04:30:00.434Z,-2.71
2022-12-14T04:32:34.368Z,-2.64
2022-12-14T04:35:10.932Z,-2.72
2022-12-14T04:37:41.660Z,-2.73
2022-12-14T04:40:12.863Z,-2.78
2022-12-14T04:42:47.482Z,-2.56
2022-12-14T04:45:22.453Z,-2.49
2022-12-14T04:47:58.179Z,-2.57
2022-12-14T04:50:32.309Z,-2.56
2022-12-14T04:53:06.208Z,-2.33
2022-12-14T04:55:38.360Z,-2.51
2022-12-14T04:58:12.063Z,-2.30
2022-12-14T05:00:52.029Z,-2.32
2022-12-14T05:03:25.812Z,-2.32
2022-12-14T05:06:06.800Z,-2.43
2022-12-14T05:09:01.769Z,-2.39
2022-12-14T05:14:25.973Z,-2.33
2022-12-14T05:16:54.320Z,-2.62
2022-12-14T05:19:26.568Z,-2.35
2022-12-14T05:21:56.888Z,-2.31
2022-12-14T05:24:25.237Z,-2.36
2022-12-14T05:26:53.685Z,-2.39
2022-12-14T05:29:22.191Z,-2.57
2022-12-14T05:31:50.838Z,-2.56
2022-12-14T05:34:19.319Z,-2.31
2022-12-14T05:36:47.623Z,-2.58
2022-12-14T05:39:18.441Z,-2.50
2022-12-14T05:41:46.898Z,-2.36
2022-12-14T05:44:15.376Z,-2.36
2022-12-14T05:46:43.953Z,-2.33
2022-12-14T05:49:13.022Z,-2.40
2022-12-14T05:51:41.336Z,-2.55
2022-12-14T05:54:10.288Z,-2.64
2022-12-14T05:56:39.961Z,-2.57
2022-12-14T05:59:08.307Z,-2.59
2022-12-14T06:01:36.468Z,-2.62
2022-12-14T06:04:04.783Z,-2.34
2022-12-14T06:06:34.963Z,-2.64
2022-12-14T06:09:03.281Z,-2.51
2022-12-14T06:11:31.401Z,-2.50
2022-12-14T06:14:01.522Z,-2.51
2022-12-14T06:16:30.395Z,-2.31
2022-12-14T06:19:00.648Z,-2.22
2022-12-14T06:21:31.533Z,-2.46
2022-12-14T06:24:01.734Z,-2.14
2022-12-14T06:26:32.530Z,-2.14
2022-12-14T06:29:02.362Z,-2.32
2022-12-14T06:31:33.727Z,-2.00
2022-12-14T06:34:03.695Z,-1.85
2022-12-14T06:36:33.977Z,-2.13
2022-12-14T06:39:04.194Z,-2.10
2022-12-14T06:41:32.568Z,-1.89
2022-12-14T06:44:07.106Z,-2.10
2022-12-14T06:46:35.919Z,-2.20
2022-12-14T06:49:06.221Z,-1.98
2022-12-14T06:51:46.697Z,-1.94
2022-12-14T06:54:15.628Z,-1.92
2022-12-14T06:56:44.675Z,-1.89
2022-12-14T06:59:14.645Z,-2.03
2022-12-14T07:01:42.940Z,-1.89
2022-12-14T07:04:11.885Z,-1.82
2022-12-14T07:06:41.570Z,-1.75
2022-12-14T07:09:13.336Z,-1.68
2022-12-14T07:11:42.559Z,-1.74
2022-12-14T07:14:17.229Z,-1.67
2022-12-14T07:16:48.738Z,-1.91
2022-12-14T07:19:17.494Z,-2.01
2022-12-14T07:21:45.486Z,-1.81
2022-12-14T07:24:13.528Z,-2.09
2022-12-14T07:26:41.700Z,-2.01
2022-12-14T07:29:11.892Z,-2.04
2022-12-14T07:31:41.234Z,-2.08
2022-12-14T07:34:12.476Z,-2.12
2022-12-14T07:36:40.636Z,-2.17
2022-12-14T07:39:08.990Z,-1.97
2022-12-14T07:41:37.209Z,-2.01
2022-12-14T07:44:05.378Z,-1.97
2022-12-14T07:46:33.562Z,-1.97
2022-12-14T07:49:03.666Z,-1.96
2022-12-14T07:51:33.191Z,-2.02
2022-12-14T07:54:02.627Z,-2.01
2022-12-14T07:56:34.435Z,-1.78
2022-12-14T07:59:04.433Z,-1.85
2022-12-14T08:01:34.907Z,-1.74
2022-12-14T08:04:07.697Z,-1.45
2022-12-14T08:06:37.682Z,-1.65
2022-12-14T08:09:06.472Z,-1.82
2022-12-14T08:11:34.953Z,-1.68
2022-12-14T08:14:05.671Z,-1.77
2022-12-14T08:16:34.336Z,-1.97
2022-12-14T08:19:04.983Z,-1.72
2022-12-14T08:21:35.489Z,-2.08
2022-12-14T08:24:03.582Z,-1.76
2022-12-14T08:26:35.460Z,-1.75
2022-12-14T08:29:04.648Z,-1.92
2022-12-14T08:31:33.831Z,-1.92
2022-12-14T08:34:03.220Z,-1.66
2022-12-14T08:36:35.101Z,-1.71
2022-12-14T08:39:05.533Z,-1.41
2022-12-14T08:41:34.127Z,-1.72
2022-12-14T08:44:03.957Z,-1.68
2022-12-14T08:46:34.033Z,-1.38
2022-12-14T08:49:02.401Z,-1.44
2022-12-14T08:51:32.427Z,-1.18
2022-12-14T08:54:00.664Z,-1.56
2022-12-14T08:56:30.007Z,-1.44
2022-12-14T08:58:58.851Z,-1.46
2022-12-14T09:01:33.493Z,-1.44
2022-12-14T09:04:07.978Z,-1.39
2022-12-14T09:06:40.367Z,-1.20
2022-12-14T09:09:15.977Z,-1.11
2022-12-14T09:11:45.395Z,-0.90
2022-12-14T09:14:14.149Z,-0.56
2022-12-14T09:16:42.782Z,-0.24
2022-12-14T09:19:11.579Z,-0.29
2022-12-14T09:21:41.384Z,-0.82
2022-12-14T09:24:12.050Z,-0.57
2022-12-14T09:26:40.331Z,-1.01
2022-12-14T09:29:08.615Z,-0.85
2022-12-14T09:31:37.391Z,-0.91
2022-12-14T09:34:05.904Z,-1.11
2022-12-14T09:36:34.874Z,-0.71
2022-12-14T09:39:05.416Z,-0.90
2022-12-14T09:41:57.751Z,-1.10
2022-12-14T09:44:48.289Z,-0.88
2022-12-14T09:47:22.117Z,-1.00
2022-12-14T09:49:54.585Z,-0.54
2022-12-14T09:52:27.357Z,-0.14
2022-12-14T09:54:59.630Z,-0.28
2022-12-14T09:57:33.899Z,0.22
2022-12-14T10:00:02.095Z,-0.34
2022-12-14T10:02:41.983Z,-0.66
2022-12-14T10:05:47.053Z,-0.42
2022-12-14T10:08:22.803Z,-0.91
2022-12-14T10:11:00.476Z,-0.85
2022-12-14T10:13:38.791Z,-0.93
2022-12-14T10:16:15.012Z,-0.79
2022-12-14T10:19:18.232Z,-0.45
2022-12-14T10:21:50.391Z,-0.45
2022-12-14T10:24:23.327Z,-0.64
2022-12-14T10:26:55.108Z,-0.54
2022-12-14T10:29:31.092Z,0.04
2022-12-14T10:32:08.034Z,-0.29
2022-12-14T10:34:38.504Z,-0.01
2022-12-14T10:37:22.218Z,0.26
2022-12-14T10:40:01.766Z,-0.14
2022-12-14T10:42:44.581Z,0.03
2022-12-14T10:45:45.445Z,-0.58
2022-12-14T10:48:37.283Z,-0.70
2022-12-14T10:51:09.645Z,-0.50
2022-12-14T10:53:44.274Z,-0.72
2022-12-14T10:56:18.366Z,-0.13
2022-12-14T10:59:26.828Z,-0.72
2022-12-14T11:02:02.692Z,-0.75
2022-12-14T11:04:39.057Z,-0.70
2022-12-14T11:07:10.846Z,-0.31
2022-12-14T11:09:40.921Z,-0.15
2022-12-14T11:12:19.598Z,-0.22
2022-12-14T11:14:55.690Z,-0.04
2022-12-14T11:17:36.512Z,-0.06
2022-12-14T11:20:15.582Z,-0.25
2022-12-14T11:22:49.109Z,-0.53
2022-12-14T11:25:35.361Z,-0.45
2022-12-14T11:28:20.253Z,0.37
2022-12-14T11:31:01.517Z,0.79
2022-12-14T11:33:35.994Z,0.72
2022-12-14T11:36:10.974Z,0.70
2022-12-14T11:38:39.525Z,0.69
2022-12-14T11:41:11.796Z,0.00
2022-12-14T11:43:41.504Z,0.07
2022-12-14T11:46:12.808Z,-0.03
2022-12-14T11:48:50.905Z,-0.39
2022-12-14T11:51:19.944Z,-0.45
2022-12-14T11:54:07.380Z,-0.14
2022-12-14T11:56:38.461Z,-0.42
2022-12-14T11:59:07.150Z,0.05
2022-12-14T12:01:38.466Z,0.28
2022-12-14T12:04:14.041Z,0.13
2022-12-14T12:06:44.877Z,-0.60
2022-12-14T12:09:28.423Z,-0.63
2022-12-14T12:11:57.559Z,-0.49
2022-12-14T12:14:32.087Z,-0.75
2022-12-14T12:17:03.232Z,-0.36
2022-12-14T12:19:37.711Z,-0.09
2022-12-14T12:22:10.544Z,0.17
2022-12-14T12:25:08.608Z,0.24
2022-12-14T12:27:35.655Z,0.12
2022-12-14T12:30:08.307Z,0.13
2022-12-14T12:32:49.931Z,-0.27
2022-12-14T12:35:23.229Z,0.05
2022-12-14T12:37:55.479Z,-0.71
2022-12-14T12:40:30.327Z,-0.76
2022-12-14T12:43:03.479Z,-0.89
2022-12-14T12:45:38.100Z,-1.09
2022-12-14T12:48:18.058Z,-0.87
2022-12-14T12:50:51.105Z,-0.57
2022-12-14T12:53:26.317Z,-0.16
2022-12-14T12:55:58.580Z,-0.45
2022-12-14T12:58:34.016Z,-0.63
2022-12-14T13:01:07.193Z,-0.20
2022-12-14T13:03:40.957Z,-0.30
2022-12-14T13:06:14.631Z,0.36
2022-12-14T13:08:49.778Z,-0.16
2022-12-14T13:11:26.838Z,-0.65
2022-12-14T13:13:59.403Z,-0.50
2022-12-14T13:16:33.833Z,-0.27
2022-12-14T13:22:07.954Z,-0.23
2022-12-14T13:24:38.802Z,-0.26
2022-12-14T13:27:44.882Z,-0.28
2022-12-14T13:30:22.556Z,-0.60
2022-12-14T13:33:08.663Z,-0.01
2022-12-14T13:35:50.825Z,-0.34
2022-12-14T13:38:56.099Z,-0.76
2022-12-14T13:41:35.697Z,0.16
2022-12-14T13:44:40.253Z,0.16
2022-12-14T13:47:16.900Z,0.51
2022-12-14T13:52:46.480Z,0.37
2022-12-14T13:55:29.499Z,0.73
2022-12-14T13:58:17.596Z,0.42
2022-12-14T14:00:58.137Z,-0.18
2022-12-14T14:03:48.397Z,0.34
2022-12-14T14:06:23.810Z,0.08
2022-12-14T14:08:54.209Z,0.02
2022-12-14T14:11:56.792Z,-0.03
2022-12-14T14:14:41.587Z,0.06
2022-12-14T14:17:18.662Z,0.05
2022-12-14T14:19:49.727Z,0.18
2022-12-14T14:22:23.278Z,0.58
2022-12-14T14:25:02.160Z,0.45
2022-12-14T14:27:37.793Z,0.26
2022-12-14T14:30:26.128Z,-0.36
2022-12-14T14:33:07.610Z,0.25
2022-12-14T14:35:43.779Z,0.50
2022-12-14T14:38:27.298Z,0.22
2022-12-14T14:41:16.739Z,0.20
2022-12-14T14:43:52.019Z,0.16
2022-12-14T14:46:23.331Z,0.23
2022-12-14T14:48:54.805Z,-0.02
2022-12-14T14:51:27.307Z,-0.41
2022-12-14T14:57:55.599Z,-0.02
2022-12-14T15:00:24.971Z,-0.58
2022-12-14T15:02:55.741Z,-1.18
2022-12-14T15:05:44.183Z,-0.94
2022-12-14T15:08:20.138Z,-0.44
2022-12-14T15:10:50.176Z,-0.34
2022-12-14T15:13:24.533Z,-0.12
2022-12-14T15:15:56.283Z,-0.09
2022-12-14T15:18:27.128Z,-0.23
2022-12-14T15:20:59.175Z,-0.23
2022-12-14T15:23:33.311Z,-0.53
2022-12-14T15:26:03.558Z,-0.33
2022-12-14T15:28:33.038Z,0.14
2022-12-14T15:31:01.739Z,-0.11
2022-12-14T15:33:35.067Z,0.11
2022-12-14T15:36:06.179Z,-0.06
2022-12-14T15:38:37.114Z,0.00
2022-12-14T15:41:08.273Z,-0.23
2022-12-14T15:43:45.111Z,-0.06
2022-12-14T15:46:19.027Z,0.08
2022-12-14T15:48:48.018Z,-0.04
2022-12-14T15:51:20.000Z,0.07
2022-12-14T15:53:51.377Z,0.18
2022-12-14T15:56:30.560Z,-0.09
2022-12-14T15:59:03.393Z,-0.13
2022-12-14T16:01:36.683Z,0.01
2022-12-14T16:04:09.535Z,-0.29
2022-12-14T16:06:41.820Z,-0.21
2022-12-14T16:09:18.442Z,0.25
2022-12-14T16:11:50.797Z,-0.25
2022-12-14T16:14:27.184Z,-0.11
2022-12-14T16:16:55.716Z,-0.11
2022-12-14T16:19:28.867Z,-0.19
2022-12-14T16:22:22.853Z,-0.31
2022-12-14T16:25:18.191Z,0.01
2022-12-14T16:27:49.839Z,-0.67
2022-12-14T16:30:28.102Z,-0.32
2022-12-14T16:33:08.533Z,-0.44
2022-12-14T16:35:39.585Z,0.11
2022-12-14T16:38:10.039Z,0.07
2022-12-14T16:40:40.853Z,0.00
2022-12-14T16:43:26.905Z,-0.21
2022-12-14T16:46:18.551Z,-0.64
2022-12-14T16:49:09.445Z,-0.15
2022-12-14T16:54:31.048Z,0.27
2022-12-14T16:57:03.425Z,0.34
2022-12-14T16:59:44.232Z,-0.05
2022-12-14T17:02:31.430Z,0.12
2022-12-14T17:05:03.757Z,0.04
2022-12-14T17:07:34.291Z,-0.04
2022-12-14T17:10:03.044Z,-0.03
2022-12-14T17:12:31.266Z,0.13
2022-12-14T17:15:00.401Z,-0.03
2022-12-14T17:17:35.053Z,-0.06
2022-12-14T17:20:06.868Z,-0.06
2022-12-14T17:22:37.609Z,0.03
2022-12-14T17:25:06.689Z,0.14
2022-12-14T17:27:34.790Z,0.00
2022-12-14T17:30:03.312Z,-0.11
2022-12-14T17:32:34.571Z,-0.02
2022-12-14T17:35:04.251Z,-0.17
2022-12-14T17:37:36.434Z,-0.02
2022-12-14T17:40:06.994Z,-0.16
2022-12-14T17:42:35.841Z,-0.10
2022-12-14T17:45:04.656Z,-0.35
2022-12-14T17:47:34.524Z,-0.34
2022-12-14T17:50:02.856Z,-0.38
2022-12-14T17:52:33.477Z,-0.33
2022-12-14T17:55:02.138Z,-0.59
2022-12-14T17:57:31.335Z,-0.41
2022-12-14T18:00:14.492Z,-0.59
2022-12-14T18:02:46.236Z,-0.53
2022-12-14T18:05:20.901Z,-0.62
2022-12-14T18:07:49.782Z,-0.29
2022-12-14T18:10:19.716Z,-0.74
2022-12-14T18:12:47.945Z,-0.67
2022-12-14T18:15:21.312Z,-0.55
2022-12-14T18:17:51.773Z,-0.78
2022-12-14T18:20:20.879Z,-0.79
2022-12-14T18:22:50.152Z,-0.58
2022-12-14T18:25:32.096Z,-0.29
2022-12-14T18:28:02.403Z,-0.31
2022-12-14T18:30:39.503Z,-0.15
2022-12-14T18:33:14.490Z,-0.52
2022-12-14T18:35:43.779Z,-0.61
2022-12-14T18:38:11.938Z,-0.31
2022-12-14T18:40:41.947Z,-0.42
2022-12-14T18:43:16.964Z,-0.43
2022-12-14T18:45:45.204Z,-0.36
2022-12-14T18:48:15.373Z,-0.54
2022-12-14T18:50:43.835Z,-0.55
2022-12-14T18:53:15.313Z,-0.40
2022-12-14T18:55:44.529Z,-0.55
2022-12-14T18:58:18.121Z,-0.49
2022-12-14T19:00:47.246Z,-0.59
2022-12-14T19:03:16.840Z,-0.52
2022-12-14T19:05:45.120Z,-0.40
2022-12-14T19:08:13.952Z,-0.52
2022-12-14T19:10:44.190Z,-0.55
2022-12-14T19:13:19.063Z,-0.66
2022-12-14T19:15:51.552Z,-0.35
2022-12-14T19:18:21.159Z,-0.21
2022-12-14T19:20:49.964Z,-0.57
2022-12-14T19:23:19.702Z,-0.49
2022-12-14T19:25:48.590Z,-0.65
2022-12-14T19:28:33.174Z,-0.65
2022-12-14T19:31:02.829Z,-0.74
2022-12-14T19:33:32.915Z,-0.54
2022-12-14T19:36:01.405Z,-0.45
2022-12-14T19:38:29.868Z,-0.41
2022-12-14T19:41:00.413Z,-0.49
2022-12-14T19:43:29.695Z,-0.42
2022-12-14T19:45:58.385Z,-0.60
2022-12-14T19:48:26.274Z,-0.57
2022-12-14T19:50:56.032Z,-0.81
2022-12-14T19:53:24.272Z,-0.78
2022-12-14T19:55:54.121Z,-0.97
2022-12-14T19:58:24.992Z,-1.27
2022-12-14T20:00:54.020Z,-1.23
2022-12-14T20:03:22.660Z,-1.51
2022-12-14T20:05:53.169Z,-1.53
2022-12-14T20:08:23.222Z,-1.71
2022-12-14T20:10:53.123Z,-1.46
2022-12-14T20:13:21.249Z,-1.28
2022-12-14T20:15:50.825Z,-1.63
2022-12-14T20:18:19.604Z,-1.51
2022-12-14T20:20:49.968Z,-1.39
2022-12-14T20:23:18.511Z,-1.41
2022-12-14T20:25:47.779Z,-1.09
2022-12-14T20:28:16.174Z,-0.98
2022-12-14T20:30:45.632Z,-1.03
2022-12-14T20:33:13.972Z,-0.80
2022-12-14T20:35:42.484Z,-0.70
2022-12-14T20:38:10.457Z,-0.72
2022-12-14T20:40:39.483Z,-0.85
2022-12-14T20:43:08.955Z,-0.64
2022-12-14T20:45:39.457Z,-0.53
2022-12-14T20:48:08.367Z,-0.46
2022-12-14T20:50:37.323Z,-0.52
2022-12-14T20:53:05.810Z,-0.91
2022-12-14T20:55:35.162Z,-0.70
2022-12-14T20:58:03.378Z,-0.95
2022-12-14T21:00:33.371Z,-0.86
2022-12-14T21:03:01.507Z,-0.91
2022-12-14T21:05:29.721Z,-0.60
2022-12-14T21:07:58.476Z,-0.27
2022-12-14T21:10:26.389Z,-0.60
2022-12-14T21:12:53.307Z,-0.79
2022-12-14T21:15:21.772Z,-0.90
2022-12-14T21:17:51.275Z,-1.10
2022-12-14T21:20:19.851Z,-1.13
2022-12-14T21:22:47.813Z,-1.04
2022-12-14T21:25:16.352Z,-1.20
2022-12-14T21:27:44.802Z,-1.64
2022-12-14T21:30:13.873Z,-1.79
2022-12-14T21:32:42.048Z,-1.96
2022-12-14T21:35:13.382Z,-2.14
2022-12-14T21:37:41.482Z,-2.22
2022-12-14T21:40:31.102Z,-2.25
2022-12-14T21:42:58.133Z,-2.37
2022-12-14T21:45:26.746Z,-2.38
2022-12-14T21:47:54.970Z,-2.63
2022-12-14T21:50:24.555Z,-2.61
2022-12-14T21:52:52.922Z,-2.65
2022-12-14T21:55:21.460Z,-2.80
2022-12-14T21:58:06.981Z,-2.63
2022-12-14T22:00:35.398Z,-2.89
2022-12-14T22:03:03.668Z,-2.89
2022-12-14T22:05:33.761Z,-2.96
2022-12-14T22:08:01.831Z,-3.04
2022-12-14T22:10:30.324Z,-2.94
2022-12-14T22:12:58.498Z,-2.83
2022-12-14T22:15:27.057Z,-2.75
2022-12-14T22:17:55.370Z,-2.91
2022-12-14T22:20:23.844Z,-2.84
2022-12-14T22:22:53.357Z,-2.64
2022-12-14T22:25:22.079Z,-2.78
2022-12-14T22:27:50.355Z,-2.79
2022-12-14T22:30:19.314Z,-2.83
2022-12-14T22:32:47.995Z,-2.72
2022-12-14T22:35:16.736Z,-2.88
2022-12-14T22:37:44.721Z,-2.84
2022-12-14T22:40:14.821Z,-2.83
2022-12-14T22:42:42.957Z,-3.03
2022-12-14T22:45:11.925Z,-2.92
2022-12-14T22:47:39.913Z,-2.94
2022-12-14T22:50:09.238Z,-3.09
2022-12-14T22:52:37.219Z,-3.08
2022-12-14T22:55:06.310Z,-3.18
2022-12-14T22:57:41.637Z,-3.17
2022-12-14T23:00:13.562Z,-3.23
2022-12-14T23:02:46.918Z,-3.27
2022-12-14T23:05:16.217Z,-3.16
2022-12-14T23:07:44.314Z,-3.11
2022-12-14T23:10:30.312Z,-3.20
2022-12-14T23:13:17.216Z,-3.06
2022-12-14T23:16:02.485Z,-3.30
2022-12-14T23:18:47.838Z,-3.54
2022-12-14T23:21:33.639Z,-3.44
2022-12-14T23:24:18.725Z,-3.29
2022-12-14T23:27:09.346Z,-3.43
2022-12-14T23:29:56.467Z,-3.41
2022-12-14T23:32:42.246Z,-3.53
2022-12-14T23:35:28.176Z,-3.61
2022-12-14T23:38:13.815Z,-3.54
2022-12-14T23:40:59.785Z,-3.35
2022-12-14T23:43:45.179Z,-3.48
2022-12-14T23:46:32.562Z,-3.57
2022-12-14T23:49:18.226Z,-3.40
2022-12-14T23:52:03.613Z,-3.63
2022-12-14T23:54:49.092Z,-3.54
2022-12-14T23:57:34.529Z,-3.54
